Time;durP1;ratioP1;P1;durP2;ratioP2;P2;SDS_P1;SDS_P2;PMS_P1;PMS_P2;Temp;Humidity;BMP_temperature;BMP_pressure;BME280_temperature;BME280_humidity;BME280_pressure;Samples;Min_cycle;Max_cycle;Signal;HPM_P1;HPM_P2
2022/08/12 00:50:00;;;;;;;3.47;2.50;;;10.90;99.90;;;;;;8331579;28;20194;-66
2022/08/12 00:54:01;;;;;;;2.20;2.00;;;10.80;99.90;;;;;;8330572;28;20194;-66
2022/08/12 00:58:04;;;;;;;3.37;2.27;;;10.70;99.90;;;;;;8332353;28;20297;-65
2022/08/12 01:02:05;;;;;;;2.23;2.00;;;10.70;99.90;;;;;;8330755;28;20254;-67
2022/08/12 01:14:49;;;;;;;2.77;2.13;;;10.40;1.00;;;;;;8335699;28;20217;-66
2022/08/12 01:18:53;;;;;;;3.00;2.27;;;10.30;69.80;;;;;;8334689;28;20210;-66
2022/08/12 01:23:16;;;;;;;3.33;2.50;;;10.30;1.00;;;;;;8329501;28;20268;-68
2022/08/12 01:27:20;;;;;;;4.13;2.23;;;10.30;99.90;;;;;;8331563;28;20185;-66
2022/08/12 01:31:21;;;;;;;2.93;2.63;;;10.30;99.90;;;;;;8328945;28;20604;-66
2022/08/12 01:35:23;;;;;;;3.23;2.00;;;10.30;99.90;;;;;;8333332;28;20178;-65
2022/08/12 01:39:48;;;;;;;2.70;2.40;;;10.20;99.90;;;;;;8330967;28;20248;-66
2022/08/12 01:43:50;;;;;;;3.23;2.53;;;10.20;1.00;;;;;;8334702;28;20185;-68
2022/08/12 01:48:38;;;;;;;3.30;2.43;;;10.20;1.00;;;;;;8329791;28;20208;-66
2022/08/12 01:52:59;;;;;;;2.30;2.00;;;10.10;1.00;;;;;;8338429;28;20358;-66
2022/08/12 01:57:12;;;;;;;3.30;2.30;;;10.00;99.90;;;;;;8346843;28;20189;-66
2022/08/12 02:01:13;;;;;;;4.13;2.27;;;10.00;99.90;;;;;;8332079;28;20182;-66
2022/08/12 02:14:51;;;;;;;2.50;2.30;;;9.90;99.90;;;;;;8339129;28;20291;-66
2022/08/12 02:19:20;;;;;;;2.40;1.93;;;9.90;99.90;;;;;;8347260;28;20205;-66
2022/08/12 02:23:26;;;;;;;2.70;2.37;;;9.90;96.50;;;;;;8345120;28;20182;-66
2022/08/12 02:27:32;;;;;;;2.43;1.93;;;9.80;99.90;;;;;;8338730;28;20206;-66
2022/08/12 02:31:35;;;;;;;2.47;2.27;;;9.80;42.90;;;;;;8342506;28;20247;-66
2022/08/12 02:35:38;;;;;;;5.80;2.57;;;9.70;1.00;;;;;;8340407;28;20436;-66
2022/08/12 02:39:43;;;;;;;3.87;2.70;;;9.70;1.00;;;;;;8342329;28;20202;-66
2022/08/12 02:43:44;;;;;;;3.03;2.57;;;9.70;99.90;;;;;;8346145;28;20269;-66
2022/08/12 02:47:48;;;;;;;4.30;2.47;;;9.70;99.90;;;;;;8342386;28;20377;-66
2022/08/12 02:51:49;;;;;;;3.17;2.20;;;9.70;1.00;;;;;;8341551;28;20182;-66
2022/08/12 02:55:51;;;;;;;3.70;2.40;;;9.70;99.90;;;;;;8343747;28;20195;-66
2022/08/12 02:59:52;;;;;;;3.43;2.47;;;9.70;99.90;;;;;;8337325;28;20214;-66
2022/08/12 03:03:55;;;;;;;2.97;2.40;;;9.70;1.00;;;;;;8337642;28;20185;-66
2022/08/12 03:08:03;;;;;;;3.07;2.23;;;9.70;1.00;;;;;;8341180;28;20246;-66
2022/08/12 03:12:04;;;;;;;2.47;2.27;;;9.70;1.00;;;;;;8349486;28;20230;-68
2022/08/12 03:16:06;;;;;;;3.83;2.30;;;9.70;1.00;;;;;;8338397;28;20239;-66
2022/08/12 03:20:08;;;;;;;3.83;2.77;;;9.60;1.00;;;;;;8337658;28;20213;-66
2022/08/12 03:24:15;;;;;;;2.77;2.50;;;9.70;1.00;;;;;;8336421;28;20214;-66
2022/08/12 03:28:49;;;;;;;2.83;2.20;;;9.70;1.00;;;;;;8336710;28;20193;-65
2022/08/12 03:32:40;;;;;;;3.00;2.70;;;9.70;1.00;;;;;;8334843;28;20276;-66
2022/08/12 03:36:41;;;;;;;3.83;2.80;;;9.80;1.00;;;;;;8347517;28;20186;-66
2022/08/12 04:02:57;;;;;;;5.50;2.70;;;9.70;70.20;;;;;;8334042;28;20204;-65
2022/08/12 04:06:59;;;;;;;4.27;2.43;;;9.80;99.90;;;;;;8351955;28;20187;-66
2022/08/12 04:15:24;;;;;;;3.30;3.00;;;10.10;1.00;;;;;;8336455;28;20197;-65
2022/08/12 04:19:26;;;;;;;3.60;3.03;;;10.30;1.00;;;;;;8336721;28;20213;-65
2022/08/12 04:23:27;;;;;;;2.57;2.37;;;10.40;99.90;;;;;;8337023;28;20222;-65
2022/08/12 04:27:30;;;;;;;2.93;2.60;;;10.50;1.00;;;;;;8336579;28;20186;-65
2022/08/12 04:31:36;;;;;;;5.43;2.90;;;10.60;99.90;;;;;;8333498;28;20189;-65
2022/08/12 04:35:37;;;;;;;3.07;2.77;;;10.70;99.90;;;;;;8334799;28;20182;-64
2022/08/12 04:39:39;;;;;;;3.03;2.53;;;10.80;99.90;;;;;;8346285;28;20205;-65
2022/08/12 04:43:39;;;;;;;4.13;3.20;;;11.00;99.90;;;;;;8335817;28;20246;-65
2022/08/12 04:47:40;;;;;;;4.07;3.50;;;11.20;99.90;;;;;;8336289;28;20193;-66
2022/08/12 04:51:42;;;;;;;3.33;3.03;;;11.40;99.90;;;;;;8335134;28;20186;-65
2022/08/12 04:55:44;;;;;;;5.23;3.10;;;11.50;80.30;;;;;;8333961;28;20237;-68
2022/08/12 04:59:45;;;;;;;4.17;2.87;;;11.60;6.20;;;;;;8334414;28;20249;-65
2022/08/12 05:03:50;;;;;;;3.00;2.57;;;11.90;1.00;;;;;;8337165;28;20186;-68
2022/08/12 05:07:52;;;;;;;4.07;3.30;;;12.10;99.90;;;;;;8345854;28;20193;-68
2022/08/12 05:11:54;;;;;;;4.00;3.60;;;12.40;99.90;;;;;;8338581;28;20583;-68
2022/08/12 05:15:55;;;;;;;3.80;3.50;;;12.40;1.00;;;;;;8336756;28;20187;-68
2022/08/12 05:19:55;;;;;;;4.43;3.67;;;12.60;99.90;;;;;;8336088;28;20240;-67
2022/08/12 05:23:56;;;;;;;5.77;3.40;;;12.70;99.90;;;;;;8342574;28;20185;-68
2022/08/12 05:27:58;;;;;;;4.17;3.30;;;12.80;1.00;;;;;;8341681;28;20188;-68
2022/08/12 05:31:59;;;;;;;5.50;3.03;;;12.80;77.90;;;;;;8350579;28;20323;-68
2022/08/12 05:36:00;;;;;;;5.43;3.30;;;13.00;99.90;;;;;;8343692;28;20190;-67
2022/08/12 05:40:03;;;;;;;4.80;3.40;;;13.20;99.90;;;;;;8343150;28;20308;-70
2022/08/12 05:44:11;;;;;;;4.07;3.17;;;13.50;99.90;;;;;;8338639;28;20176;-68
2022/08/12 05:48:12;;;;;;;3.70;3.00;;;14.00;55.80;;;;;;8332613;28;20273;-68
2022/08/12 05:52:13;;;;;;;3.30;3.00;;;14.60;99.90;;;;;;8336610;28;20217;-68
2022/08/12 05:56:24;;;;;;;3.93;2.87;;;15.20;59.50;;;;;;8347727;28;20226;-68
2022/08/12 06:00:25;;;;;;;3.13;2.67;;;15.80;99.90;;;;;;8331747;28;20210;-68
2022/08/12 06:04:26;;;;;;;2.73;2.50;;;16.30;99.90;;;;;;8344885;28;20189;-69
2022/08/12 06:08:27;;;;;;;4.60;2.63;;;16.80;1.00;;;;;;8338124;28;20595;-69
2022/08/12 06:12:28;;;;;;;3.90;2.40;;;17.30;1.00;;;;;;8343492;28;20222;-68
2022/08/12 06:16:32;;;;;;;6.37;3.50;;;18.00;99.90;;;;;;8343901;28;20209;-69
2022/08/12 06:20:33;;;;;;;9.23;3.67;;;18.60;99.90;;;;;;8339065;28;20201;-68
2022/08/12 06:24:34;;;;;;;7.57;3.80;;;19.10;99.90;;;;;;8339571;28;20187;-69
2022/08/12 06:28:35;;;;;;;5.53;3.33;;;19.20;99.90;;;;;;8334680;28;20511;-69
2022/08/12 06:32:36;;;;;;;7.87;5.20;;;19.60;99.90;;;;;;8333644;28;20251;-69
2022/08/12 06:36:37;;;;;;;9.13;4.67;;;19.90;90.50;;;;;;8335139;28;20210;-69
2022/08/12 06:44:57;;;;;;;4.10;2.90;;;19.80;77.50;;;;;;8334457;28;20225;-69
2022/08/12 06:48:59;;;;;;;3.43;3.10;;;19.70;72.80;;;;;;8350116;28;20560;-68
2022/08/12 06:53:00;;;;;;;3.17;2.47;;;19.50;82.20;;;;;;8344505;28;20217;-68
2022/08/12 06:57:01;;;;;;;3.73;2.63;;;19.40;89.20;;;;;;8345048;28;20209;-69
2022/08/12 07:01:03;;;;;;;5.40;2.80;;;19.50;91.30;;;;;;8335001;28;20210;-68
2022/08/12 07:05:04;;;;;;;4.63;2.73;;;19.50;87.80;;;;;;8338895;28;20240;-68
2022/08/12 07:09:05;;;;;;;3.43;2.57;;;19.50;60.20;;;;;;8353401;28;20432;-68
2022/08/12 07:13:07;;;;;;;4.23;2.60;;;19.60;54.00;;;;;;8339186;28;20299;-69
2022/08/12 07:17:08;;;;;;;4.67;2.50;;;19.70;47.30;;;;;;8353463;28;20186;-68
2022/08/12 07:21:09;;;;;;;3.93;2.30;;;19.90;44.80;;;;;;8340423;28;20209;-69
2022/08/12 07:25:52;;;;;;;4.63;2.23;;;20.20;35.90;;;;;;8334853;28;20186;-69
2022/08/12 07:29:34;;;;;;;5.27;2.10;;;20.40;19.90;;;;;;8342472;28;20205;-68
2022/08/12 07:33:37;;;;;;;3.90;2.13;;;20.50;20.60;;;;;;8348198;28;20225;-68
2022/08/12 07:37:41;;;;;;;2.73;2.00;;;20.50;23.70;;;;;;8349435;28;20194;-68
2022/08/12 07:41:42;;;;;;;4.83;2.00;;;20.70;18.40;;;;;;8334056;28;20244;-70
2022/08/12 07:45:44;;;;;;;3.47;1.50;;;20.80;12.90;;;;;;8340546;28;20265;-67
2022/08/12 07:49:45;;;;;;;2.43;1.63;;;21.10;17.10;;;;;;8344058;28;20182;-67
2022/08/12 07:53:49;;;;;;;3.03;1.63;;;21.30;13.20;;;;;;8351374;28;20186;-66
2022/08/12 07:57:58;;;;;;;2.50;1.20;;;21.60;1.00;;;;;;8332345;28;20225;-66
2022/08/12 08:02:00;;;;;;;1.43;1.30;;;21.70;1.00;;;;;;8334689;28;20383;-67
2022/08/12 08:06:04;;;;;;;3.03;1.30;;;21.90;1.00;;;;;;8354349;28;20186;-68
2022/08/12 08:10:07;;;;;;;3.07;1.43;;;21.90;1.00;;;;;;8336289;28;20206;-66
2022/08/12 08:14:09;;;;;;;4.23;1.60;;;21.80;1.00;;;;;;8346724;28;20205;-65
2022/08/12 08:18:12;;;;;;;1.70;1.30;;;21.90;1.00;;;;;;8342564;28;20210;-67
2022/08/12 08:22:13;;;;;;;2.57;1.30;;;22.20;1.00;;;;;;8338773;28;20178;-67
2022/08/12 08:26:15;;;;;;;2.13;1.23;;;22.50;1.00;;;;;;8343604;28;20250;-66
2022/08/12 08:30:16;;;;;;;2.00;1.10;;;22.50;1.00;;;;;;8358520;28;20277;-66
2022/08/12 08:34:18;;;;;;;3.13;1.50;;;22.50;1.00;;;;;;8339568;28;20197;-66
2022/08/12 08:38:19;;;;;;;2.90;1.30;;;22.70;1.00;;;;;;8353725;28;20285;-67
2022/08/12 08:42:39;;;;;;;3.90;1.27;;;23.00;1.00;;;;;;8355620;28;20193;-66
2022/08/12 08:46:43;;;;;;;1.73;1.13;;;23.20;1.00;;;;;;8336853;28;20185;-67
2022/08/12 08:50:44;;;;;;;3.03;1.50;;;23.40;1.00;;;;;;8337217;28;20191;-66
2022/08/12 08:54:46;;;;;;;1.40;1.20;;;23.70;1.00;;;;;;8336087;28;20186;-65
2022/08/12 08:58:48;;;;;;;4.20;1.40;;;23.90;1.00;;;;;;8335181;28;20214;-65
2022/08/12 09:02:49;;;;;;;0.97;0.87;;;24.20;1.00;;;;;;8337004;28;20183;-66
2022/08/12 09:06:55;;;;;;;2.23;1.30;;;24.50;1.00;;;;;;8342262;28;20189;-66
2022/08/12 09:10:57;;;;;;;1.90;1.13;;;24.80;1.00;;;;;;8340351;28;20247;-66
2022/08/12 09:14:59;;;;;;;1.63;1.20;;;25.20;1.00;;;;;;8351864;28;20191;-66
2022/08/12 09:19:00;;;;;;;3.27;0.93;;;25.50;1.00;;;;;;8346929;28;20280;-65
2022/08/12 09:23:04;;;;;;;1.93;0.87;;;25.70;1.00;;;;;;8350678;28;20183;-66
2022/08/12 09:27:05;;;;;;;1.50;1.00;;;26.00;1.00;;;;;;8352152;28;20194;-65
2022/08/12 09:31:06;;;;;;;2.55;1.00;;;26.30;1.00;;;;;;8350194;28;20194;-65
2022/08/12 09:35:10;;;;;;;3.00;1.08;;;26.40;1.00;;;;;;8340573;28;20185;-67
2022/08/12 09:39:12;;;;;;;1.42;1.10;;;26.40;1.00;;;;;;8334470;28;20209;-66
2022/08/12 09:47:40;;;;;;;4.75;1.48;;;26.50;1.00;;;;;;8334783;28;20192;-66
2022/08/12 09:51:42;;;;;;;1.52;0.90;;;26.30;1.00;;;;;;8336998;28;20174;-66
2022/08/12 09:55:47;;;;;;;1.02;0.60;;;26.30;1.00;;;;;;8348149;28;20178;-66
2022/08/12 09:59:48;;;;;;;3.85;0.90;;;26.30;1.00;;;;;;8337712;28;20199;-67
2022/08/12 10:03:48;;;;;;;1.13;0.90;;;26.30;1.00;;;;;;8333751;28;20196;-66
2022/08/12 10:07:49;;;;;;;2.47;0.80;;;26.40;1.00;;;;;;8338661;28;20193;-66
2022/08/12 10:16:20;;;;;;;1.67;0.90;;;26.30;1.00;;;;;;8338549;28;20209;-66
2022/08/12 10:20:21;;;;;;;1.67;1.00;;;26.00;1.00;;;;;;8338267;28;20197;-66
2022/08/12 10:24:22;;;;;;;1.73;0.97;;;25.80;1.00;;;;;;8346331;28;20231;-67
2022/08/12 10:32:42;;;;;;;1.27;0.90;;;25.80;1.00;;;;;;8340346;28;20196;-68
2022/08/12 10:36:44;;;;;;;1.30;0.82;;;26.00;1.00;;;;;;8341635;28;20273;-67
2022/08/12 10:45:06;;;;;;;2.38;1.20;;;26.70;1.00;;;;;;8346402;28;20320;-67
2022/08/12 10:49:10;;;;;;;2.60;1.08;;;27.20;1.00;;;;;;8341681;28;20477;-65
2022/08/12 10:53:11;;;;;;;2.33;1.40;;;27.20;1.00;;;;;;8346453;28;20191;-65
2022/08/12 10:57:12;;;;;;;0.88;0.88;;;27.40;1.00;;;;;;8342421;28;20187;-63
2022/08/12 11:01:14;;;;;;;1.20;1.00;;;27.50;1.00;;;;;;8342425;28;20205;-67
2022/08/12 11:05:14;;;;;;;2.05;0.93;;;27.90;1.00;;;;;;8339716;28;20256;-64
2022/08/12 11:09:17;;;;;;;1.23;1.00;;;28.20;1.00;;;;;;8336071;28;20839;-66
2022/08/12 11:13:19;;;;;;;3.30;1.08;;;28.40;1.00;;;;;;8343099;28;20207;-65
2022/08/12 11:17:19;;;;;;;4.35;1.05;;;28.80;1.00;;;;;;8341858;28;20183;-64
2022/08/12 11:21:20;;;;;;;1.23;0.80;;;29.10;1.00;;;;;;8350454;28;20205;-64
2022/08/12 11:25:21;;;;;;;4.40;0.98;;;29.00;1.00;;;;;;8338857;28;20273;-66
2022/08/12 11:29:24;;;;;;;1.58;0.80;;;29.10;1.00;;;;;;8338732;28;20186;-65
2022/08/12 11:33:25;;;;;;;1.42;1.23;;;29.30;1.00;;;;;;8341675;28;20680;-66
2022/08/12 11:37:26;;;;;;;2.35;0.90;;;29.70;1.00;;;;;;8337583;28;20191;-67
2022/08/12 11:41:27;;;;;;;3.35;0.90;;;29.60;1.00;;;;;;8338535;28;20199;-66
2022/08/12 11:45:29;;;;;;;2.08;1.15;;;29.30;1.00;;;;;;8338820;28;20255;-66
2022/08/12 11:49:29;;;;;;;1.15;0.90;;;29.20;1.00;;;;;;8339445;28;20254;-64
2022/08/12 11:53:30;;;;;;;3.50;1.27;;;29.20;1.00;;;;;;8339677;28;20194;-66
2022/08/12 11:57:31;;;;;;;2.10;1.10;;;29.30;1.00;;;;;;8337825;28;20181;-65
2022/08/12 12:01:32;;;;;;;4.78;1.10;;;28.90;1.00;;;;;;8335535;28;20607;-65
2022/08/12 12:05:33;;;;;;;1.38;0.85;;;28.70;1.00;;;;;;8339697;28;20185;-66
2022/08/12 12:09:35;;;;;;;1.67;0.90;;;28.70;1.00;;;;;;8342529;28;20293;-66
2022/08/12 12:13:39;;;;;;;2.13;1.00;;;28.60;1.00;;;;;;8341068;28;20237;-66
2022/08/12 12:17:41;;;;;;;1.08;0.90;;;28.20;1.00;;;;;;8336261;28;20225;-66
2022/08/12 12:21:41;;;;;;;1.08;0.98;;;28.10;1.00;;;;;;8340126;28;20174;-66
2022/08/12 12:25:42;;;;;;;1.83;1.10;;;27.90;1.00;;;;;;8340257;28;20178;-65
2022/08/12 12:29:43;;;;;;;1.20;1.10;;;27.90;1.00;;;;;;8353521;28;20189;-65
2022/08/12 12:33:44;;;;;;;3.83;1.00;;;28.00;1.00;;;;;;8336786;28;20269;-64
2022/08/12 12:37:52;;;;;;;1.55;1.23;;;27.90;1.00;;;;;;8337296;28;20217;-64
2022/08/12 12:41:53;;;;;;;2.13;1.08;;;27.70;1.00;;;;;;8358033;28;20220;-66
2022/08/12 12:45:56;;;;;;;4.15;1.05;;;27.60;1.00;;;;;;8346175;28;20182;-64
2022/08/12 12:49:57;;;;;;;1.35;1.17;;;27.30;1.00;;;;;;8350851;28;20178;-67
2022/08/12 12:53:58;;;;;;;1.73;1.00;;;27.00;1.00;;;;;;8342141;28;20201;-66
2022/08/12 12:58:03;;;;;;;2.72;1.20;;;27.20;1.00;;;;;;8352457;28;20292;-66
2022/08/12 13:02:06;;;;;;;1.45;1.05;;;27.50;1.00;;;;;;8355482;28;20182;-66
2022/08/12 13:06:07;;;;;;;1.25;0.90;;;27.90;1.00;;;;;;8349338;28;20174;-65
2022/08/12 13:10:08;;;;;;;1.15;0.88;;;28.10;1.00;;;;;;8347299;28;20221;-63
2022/08/12 13:14:12;;;;;;;1.45;0.82;;;28.30;1.00;;;;;;8335370;28;20212;-64
2022/08/12 13:18:14;;;;;;;1.02;0.80;;;28.40;1.00;;;;;;8341246;28;20205;-64
2022/08/12 13:22:16;;;;;;;1.30;0.95;;;28.90;1.00;;;;;;8350782;28;20179;-64
2022/08/12 13:26:18;;;;;;;1.92;1.00;;;29.60;1.00;;;;;;8340674;28;20182;-66
2022/08/12 13:30:20;;;;;;;3.97;1.08;;;29.90;1.00;;;;;;8338752;28;20183;-67
2022/08/12 13:34:23;;;;;;;2.53;1.20;;;29.90;1.00;;;;;;8348985;28;20181;-64
2022/08/12 13:38:35;;;;;;;1.08;0.98;;;29.80;1.00;;;;;;8342910;28;20210;-65
2022/08/12 13:42:38;;;;;;;2.58;1.17;;;29.70;1.00;;;;;;8340008;28;20202;-64
2022/08/12 13:46:42;;;;;;;2.05;0.90;;;29.60;1.00;;;;;;8335575;28;20182;-65
2022/08/12 13:50:45;;;;;;;2.25;1.08;;;29.30;1.00;;;;;;8348925;28;20197;-65
2022/08/12 13:54:46;;;;;;;1.35;1.20;;;29.30;1.00;;;;;;8353200;28;20188;-66
2022/08/12 13:58:50;;;;;;;1.83;1.15;;;29.40;1.00;;;;;;8340545;28;20197;-65
2022/08/12 14:02:51;;;;;;;1.70;1.25;;;29.30;1.00;;;;;;8344664;28;20197;-65
2022/08/12 14:06:52;;;;;;;1.95;1.23;;;28.80;1.00;;;;;;8350041;28;20294;-66
2022/08/12 14:10:54;;;;;;;1.50;1.00;;;28.30;1.00;;;;;;8356958;28;20208;-66
2022/08/12 14:14:56;;;;;;;1.52;1.20;;;27.90;1.00;;;;;;8346652;28;20182;-67
2022/08/12 14:18:57;;;;;;;1.05;0.90;;;27.80;1.00;;;;;;8359884;28;20321;-68
2022/08/12 14:22:58;;;;;;;1.25;1.15;;;27.70;1.00;;;;;;8361800;28;20185;-68
2022/08/12 14:26:59;;;;;;;3.03;1.10;;;27.70;1.00;;;;;;8349941;28;20182;-67
2022/08/12 14:31:09;;;;;;;2.45;1.15;;;27.60;1.00;;;;;;8348570;28;20214;-67
2022/08/12 14:35:09;;;;;;;2.42;1.40;;;27.60;1.00;;;;;;8347228;28;20193;-66
2022/08/12 14:39:10;;;;;;;2.25;1.00;;;28.00;1.00;;;;;;8359422;28;20236;-65
2022/08/12 14:43:13;;;;;;;2.45;1.00;;;28.30;1.00;;;;;;8341795;28;20182;-65
2022/08/12 14:47:14;;;;;;;3.30;1.50;;;28.50;1.00;;;;;;8349245;28;20199;-65
2022/08/12 14:51:19;;;;;;;1.52;1.15;;;28.40;1.00;;;;;;8347888;28;20187;-63
2022/08/12 14:55:20;;;;;;;2.17;1.40;;;28.20;1.00;;;;;;8357140;28;20186;-66
2022/08/12 15:03:43;;;;;;;0.65;0.65;;;28.50;1.00;;;;;;8335063;28;20197;-65
2022/08/12 15:07:44;;;;;;;2.25;1.30;;;28.70;1.00;;;;;;8341474;28;20190;-63
2022/08/12 15:11:46;;;;;;;1.30;1.20;;;28.90;1.00;;;;;;8343355;28;20218;-65
2022/08/12 15:15:48;;;;;;;1.27;1.17;;;28.80;1.00;;;;;;8343818;28;20179;-65
2022/08/12 15:19:49;;;;;;;2.50;1.15;;;28.80;1.00;;;;;;8355801;28;20328;-66
2022/08/12 15:23:50;;;;;;;4.18;1.40;;;28.80;1.00;;;;;;8347091;28;20190;-67
2022/08/12 15:27:52;;;;;;;0.95;0.95;;;28.90;1.00;;;;;;8341419;28;20181;-64
2022/08/12 15:31:53;;;;;;;1.33;1.23;;;28.90;1.00;;;;;;8345392;28;20188;-65
2022/08/12 15:35:58;;;;;;;1.17;1.08;;;29.00;1.00;;;;;;8341038;28;20177;-65
2022/08/12 15:39:58;;;;;;;1.50;1.20;;;29.20;1.00;;;;;;8343289;28;20712;-65
2022/08/12 15:43:59;;;;;;;3.17;1.00;;;29.40;1.00;;;;;;8337672;28;20171;-65
2022/08/12 15:48:01;;;;;;;1.80;1.02;;;29.50;1.00;;;;;;8346031;28;20178;-65
2022/08/12 15:52:02;;;;;;;3.00;1.27;;;29.30;1.00;;;;;;8346571;28;20179;-66
2022/08/12 15:56:06;;;;;;;3.10;1.15;;;29.00;1.00;;;;;;8340887;28;20381;-65
2022/08/12 16:00:08;;;;;;;2.92;1.33;;;28.80;1.00;;;;;;8340220;28;20210;-64
2022/08/12 16:04:10;;;;;;;2.03;1.60;;;28.50;1.00;;;;;;8344796;28;20186;-66
2022/08/12 16:08:11;;;;;;;1.60;1.20;;;28.40;1.00;;;;;;8358740;28;20321;-64
2022/08/12 16:12:12;;;;;;;1.85;1.33;;;28.40;1.00;;;;;;8359174;28;20214;-64
2022/08/12 16:16:13;;;;;;;1.63;1.50;;;28.40;1.00;;;;;;8340532;28;20202;-65
2022/08/12 16:20:20;;;;;;;2.63;1.40;;;28.40;1.00;;;;;;8343170;28;20198;-66
2022/08/12 16:24:21;;;;;;;3.85;1.23;;;28.40;1.00;;;;;;8352434;28;20182;-66
2022/08/12 16:28:22;;;;;;;1.23;1.00;;;28.40;1.00;;;;;;8347257;28;20197;-66
2022/08/12 16:32:26;;;;;;;1.60;1.42;;;28.30;1.00;;;;;;8352484;28;20187;-66
2022/08/12 16:36:28;;;;;;;2.83;0.90;;;28.20;1.00;;;;;;8345186;28;20206;-66
2022/08/12 16:40:30;;;;;;;22.65;9.40;;;28.10;1.00;;;;;;8347113;28;20206;-67
2022/08/12 16:44:31;;;;;;;11.57;6.53;;;28.00;1.00;;;;;;8347588;28;20264;-66
2022/08/12 16:48:33;;;;;;;12.40;7.30;;;27.90;1.00;;;;;;8346933;28;20183;-66
2022/08/12 16:52:34;;;;;;;5.28;2.30;;;27.80;1.00;;;;;;8342058;28;20193;-65
2022/08/12 16:56:35;;;;;;;2.83;2.03;;;27.70;1.00;;;;;;8346431;28;20185;-64
2022/08/12 17:00:39;;;;;;;3.67;1.65;;;27.60;1.00;;;;;;8353863;28;20197;-66
2022/08/12 17:04:42;;;;;;;1.85;1.55;;;27.50;1.00;;;;;;8349471;28;20169;-66
2022/08/12 17:08:43;;;;;;;2.88;1.70;;;27.40;1.00;;;;;;8344068;28;20192;-68
2022/08/12 17:12:44;;;;;;;1.95;1.60;;;27.20;1.00;;;;;;8354523;28;20206;-66
2022/08/12 17:16:47;;;;;;;1.80;1.30;;;27.00;1.00;;;;;;8349790;28;20189;-66
2022/08/12 17:20:48;;;;;;;1.35;1.08;;;26.80;1.00;;;;;;8347225;28;20202;-66
2022/08/12 17:24:50;;;;;;;2.42;1.27;;;26.60;1.00;;;;;;8352416;28;20189;-66
2022/08/12 17:28:52;;;;;;;2.58;1.38;;;26.40;1.00;;;;;;8343481;28;20189;-65
2022/08/12 17:32:57;;;;;;;1.77;1.65;;;26.10;1.00;;;;;;8354785;28;20245;-66
2022/08/12 17:36:58;;;;;;;2.00;1.20;;;25.90;1.00;;;;;;8363372;28;20174;-66
2022/08/12 17:41:01;;;;;;;2.80;2.20;;;25.60;1.00;;;;;;8351502;28;20205;-65
2022/08/12 17:45:04;;;;;;;5.73;1.50;;;25.40;1.00;;;;;;8353295;28;20178;-66
2022/08/12 17:49:05;;;;;;;4.20;1.57;;;25.10;1.00;;;;;;8344615;28;20174;-65
2022/08/12 17:53:09;;;;;;;2.27;1.77;;;24.80;1.00;;;;;;8345921;28;20182;-66
2022/08/12 17:57:10;;;;;;;1.70;1.60;;;24.70;1.00;;;;;;8361484;28;20182;-65
2022/08/12 18:01:11;;;;;;;10.43;4.37;;;24.50;1.00;;;;;;8346943;28;20201;-65
2022/08/12 18:05:14;;;;;;;6.60;5.03;;;24.20;1.00;;;;;;8351599;28;20178;-65
2022/08/12 18:09:15;;;;;;;4.27;3.40;;;24.10;1.00;;;;;;8361471;28;20186;-65
2022/08/12 18:13:16;;;;;;;5.37;3.30;;;23.90;1.00;;;;;;8351578;28;20209;-65
2022/08/12 18:17:20;;;;;;;6.70;3.53;;;23.70;1.00;;;;;;8336099;28;20252;-65
2022/08/12 18:21:21;;;;;;;6.30;4.33;;;23.50;1.00;;;;;;8351624;28;20241;-66
2022/08/12 18:29:45;;;;;;;6.00;5.40;;;23.10;1.00;;;;;;8345941;28;20227;-65
2022/08/12 18:33:47;;;;;;;9.13;5.80;;;22.90;1.00;;;;;;8346678;28;20243;-65
2022/08/12 18:37:47;;;;;;;5.93;4.93;;;22.80;1.00;;;;;;8347373;28;20237;-65
2022/08/12 18:41:50;;;;;;;6.93;4.03;;;22.70;1.00;;;;;;8350952;28;20206;-65
2022/08/12 18:45:55;;;;;;;4.30;3.53;;;22.50;1.00;;;;;;8344220;28;20178;-65
2022/08/12 18:49:56;;;;;;;5.37;2.90;;;22.10;1.00;;;;;;8350980;28;20284;-66
2022/08/12 18:53:57;;;;;;;3.30;2.70;;;21.70;1.00;;;;;;8354156;28;20216;-65
2022/08/12 18:58:00;;;;;;;2.50;2.30;;;21.40;1.00;;;;;;8347587;28;20216;-65
2022/08/12 19:02:01;;;;;;;2.67;2.17;;;21.10;1.00;;;;;;8354925;28;20183;-66
2022/08/12 19:06:05;;;;;;;2.73;2.33;;;20.80;1.00;;;;;;8351995;28;20350;-65
2022/08/12 19:10:08;;;;;;;2.40;2.20;;;20.60;1.00;;;;;;8344110;28;20197;-67
2022/08/12 19:14:26;;;;;;;4.47;3.23;;;20.40;1.00;;;;;;8349339;28;20294;-65
2022/08/12 19:18:27;;;;;;;3.17;2.50;;;20.20;13.90;;;;;;8347530;28;20295;-65
2022/08/12 19:22:32;;;;;;;2.47;2.27;;;20.00;15.10;;;;;;8364257;28;20208;-66
2022/08/12 19:26:34;;;;;;;2.63;2.20;;;19.90;19.10;;;;;;8344711;28;20265;-66
2022/08/12 19:34:55;;;;;;;12.57;9.40;;;19.50;63.40;;;;;;8340884;28;20197;-65
2022/08/12 19:38:56;;;;;;;30.33;22.20;;;19.30;95.80;;;;;;8338561;28;20230;-66
2022/08/12 19:42:58;;;;;;;26.63;21.40;;;19.10;99.90;;;;;;8361802;28;20178;-66
2022/08/12 19:47:02;;;;;;;4.03;2.70;;;18.90;99.90;;;;;;8345203;28;20185;-68
2022/08/12 19:51:03;;;;;;;6.50;3.20;;;18.70;99.90;;;;;;8351948;28;20311;-66
2022/08/12 19:55:05;;;;;;;3.27;2.97;;;18.40;99.90;;;;;;8353862;28;20210;-65
2022/08/12 20:03:26;;;;;;;3.70;3.10;;;17.90;99.90;;;;;;8344257;28;20231;-67
2022/08/12 20:07:27;;;;;;;4.40;3.50;;;17.80;99.90;;;;;;8339715;28;20185;-67
2022/08/12 20:11:29;;;;;;;4.80;4.00;;;17.80;99.90;;;;;;8353632;28;20330;-67
2022/08/12 20:15:30;;;;;;;3.50;3.20;;;17.70;99.90;;;;;;8339203;28;20208;-67
2022/08/12 20:19:34;;;;;;;3.43;3.13;;;17.60;99.90;;;;;;8361779;28;20228;-67
2022/08/12 20:23:36;;;;;;;3.33;2.90;;;17.50;99.90;;;;;;8343286;28;20193;-68
2022/08/12 20:27:39;;;;;;;5.43;3.67;;;17.40;99.90;;;;;;8345814;28;20187;-68
2022/08/12 20:31:41;;;;;;;3.80;3.40;;;17.30;99.90;;;;;;8345236;28;20182;-68
2022/08/12 20:35:43;;;;;;;4.13;2.97;;;17.20;99.90;;;;;;8345645;28;20264;-69
2022/08/12 20:39:45;;;;;;;3.60;3.17;;;17.10;99.90;;;;;;8341419;28;20294;-68
2022/08/12 20:43:50;;;;;;;3.40;3.07;;;16.90;99.90;;;;;;8336607;28;20190;-68
2022/08/12 20:47:52;;;;;;;3.00;2.70;;;16.80;1.00;;;;;;8339180;28;20185;-68
2022/08/12 20:51:54;;;;;;;4.07;3.67;;;16.70;1.00;;;;;;8342975;28;20189;-67
2022/08/12 20:55:55;;;;;;;3.63;3.00;;;16.60;1.00;;;;;;8340262;28;20209;-67
2022/08/12 20:59:56;;;;;;;3.87;3.47;;;16.50;1.00;;;;;;8347586;28;20214;-67
2022/08/12 21:08:17;;;;;;;4.30;3.53;;;16.40;1.00;;;;;;8340957;28;20232;-67
2022/08/12 21:12:23;;;;;;;3.83;3.53;;;16.40;1.00;;;;;;8355069;28;20271;-68
2022/08/12 21:16:24;;;;;;;4.67;3.40;;;16.30;1.00;;;;;;8339433;28;20268;-68
2022/08/12 21:20:25;;;;;;;4.07;3.30;;;16.20;1.00;;;;;;8337401;28;20308;-67
2022/08/12 21:24:28;;;;;;;4.57;3.20;;;16.10;1.00;;;;;;8339255;28;20182;-67
2022/08/12 21:28:29;;;;;;;3.70;3.40;;;16.00;1.00;;;;;;8338480;28;20186;-67
2022/08/12 21:32:30;;;;;;;3.37;3.07;;;16.00;26.20;;;;;;8349459;28;20257;-68
2022/08/12 21:36:33;;;;;;;3.60;3.30;;;15.90;43.10;;;;;;8342487;28;20228;-68
2022/08/12 21:40:33;;;;;;;4.77;3.40;;;15.90;69.40;;;;;;8338294;28;20263;-67
2022/08/12 21:44:36;;;;;;;3.90;3.50;;;15.80;92.60;;;;;;8337649;28;20186;-67
2022/08/12 21:48:38;;;;;;;3.80;3.40;;;15.80;99.90;;;;;;8347746;28;20185;-67
2022/08/12 21:52:42;;;;;;;4.03;3.70;;;15.80;99.90;;;;;;8340796;28;20193;-67
2022/08/12 21:56:45;;;;;;;3.97;3.57;;;15.70;99.90;;;;;;8338718;28;20186;-67
2022/08/12 22:00:48;;;;;;;4.30;3.70;;;15.60;99.90;;;;;;8339064;28;20202;-67
2022/08/12 22:09:11;;;;;;;4.20;3.80;;;15.50;99.90;;;;;;8347782;28;20276;-67
2022/08/12 22:13:11;;;;;;;4.07;3.67;;;15.50;99.90;;;;;;8338931;28;20218;-67
2022/08/12 22:17:13;;;;;;;4.83;4.17;;;15.40;99.90;;;;;;8343649;28;20217;-72
2022/08/12 22:21:16;;;;;;;4.33;3.47;;;15.40;99.90;;;;;;8344082;28;20199;-67
2022/08/12 22:25:19;;;;;;;4.00;3.43;;;15.30;99.90;;;;;;8358475;28;20186;-67
2022/08/12 22:33:45;;;;;;;5.03;3.87;;;15.10;1.00;;;;;;8350842;28;20189;-67
2022/08/12 22:37:46;;;;;;;3.77;3.47;;;15.00;1.00;;;;;;8346024;28;20201;-67
2022/08/12 22:50:23;;;;;;;5.10;3.63;;;14.90;1.00;;;;;;8348692;28;20190;-67
2022/08/12 22:54:25;;;;;;;4.47;3.97;;;14.80;23.20;;;;;;8346184;28;20209;-67
2022/08/12 22:58:27;;;;;;;4.70;4.13;;;14.80;24.90;;;;;;8359612;28;20214;-67
2022/08/12 23:02:29;;;;;;;4.53;3.73;;;14.80;49.70;;;;;;8354306;28;20189;-67
2022/08/12 23:06:30;;;;;;;4.27;3.87;;;14.80;69.90;;;;;;8345426;28;20245;-75
2022/08/12 23:10:31;;;;;;;4.50;4.10;;;14.70;97.80;;;;;;8350443;28;20216;-67
2022/08/12 23:14:33;;;;;;;4.27;3.87;;;14.70;99.90;;;;;;8360988;28;20209;-67
2022/08/12 23:18:34;;;;;;;4.70;4.30;;;14.70;99.90;;;;;;8349435;28;20210;-67
2022/08/12 23:22:34;;;;;;;5.33;4.83;;;14.70;99.90;;;;;;8347526;28;20214;-67
2022/08/12 23:30:59;;;;;;;4.90;4.50;;;14.70;99.90;;;;;;8342407;28;20198;-67
2022/08/12 23:35:01;;;;;;;4.97;4.47;;;14.60;99.90;;;;;;8346950;28;20193;-71
2022/08/12 23:39:03;;;;;;;3.93;3.63;;;14.50;99.90;;;;;;8351537;28;20238;-67
2022/08/12 23:43:04;;;;;;;4.70;4.13;;;14.40;1.00;;;;;;8351511;28;20201;-67
2022/08/12 23:47:08;;;;;;;4.70;3.97;;;14.30;1.00;;;;;;8342956;28;20186;-67
2022/08/12 23:51:13;;;;;;;4.27;3.87;;;14.20;1.00;;;;;;8351119;28;20187;-67